Terminal Aerodrome Forecast
Issued by NWS

Home | Current Version | Previous Version | Text Only | Print | Product List | Glossary Off
Versions: 1 2 3 4 5 6 7 8 9 10 11 12 13 14 15

000
FTUS41 KCLE 251731
TAFFDY
TAF
KFDY 251731Z 2518/2618 22010G18KT P6SM BKN100
     FM260000 26005KT P6SM BKN070
     FM260800 31005KT P6SM SCT070=

USA.gov is the U.S. government's official web portal to all federal, state and local government web resources and services.